sensor_id;sensor_type;location;lat;lon;timestamp;temperature;humidity
49238;DHT22;35069;47.906;1.892;2023-11-22T00:02:05;10.80;86.10
49238;DHT22;35069;47.906;1.892;2023-11-22T00:04:35;10.80;86.10
49238;DHT22;35069;47.906;1.892;2023-11-22T00:07:00;10.70;85.90
49238;DHT22;35069;47.906;1.892;2023-11-22T00:09:26;10.70;85.80
49238;DHT22;35069;47.906;1.892;2023-11-22T00:11:51;10.80;85.70
49238;DHT22;35069;47.906;1.892;2023-11-22T00:14:17;10.80;85.60
49238;DHT22;35069;47.906;1.892;2023-11-22T00:16:43;10.80;85.40
49238;DHT22;35069;47.906;1.892;2023-11-22T00:19:08;10.80;85.30
49238;DHT22;35069;47.906;1.892;2023-11-22T00:21:35;10.70;85.30
49238;DHT22;35069;47.906;1.892;2023-11-22T00:24:01;10.70;85.40
49238;DHT22;35069;47.906;1.892;2023-11-22T00:26:26;10.70;85.30
49238;DHT22;35069;47.906;1.892;2023-11-22T00:28:52;10.70;85.20
49238;DHT22;35069;47.906;1.892;2023-11-22T00:31:19;10.70;85.00
49238;DHT22;35069;47.906;1.892;2023-11-22T00:33:44;10.70;85.00
49238;DHT22;35069;47.906;1.892;2023-11-22T00:36:10;10.60;85.00
49238;DHT22;35069;47.906;1.892;2023-11-22T00:38:35;10.60;85.10
49238;DHT22;35069;47.906;1.892;2023-11-22T00:41:02;10.50;85.00
49238;DHT22;35069;47.906;1.892;2023-11-22T00:43:28;10.50;85.10
49238;DHT22;35069;47.906;1.892;2023-11-22T00:45:53;10.50;85.00
49238;DHT22;35069;47.906;1.892;2023-11-22T00:48:19;10.50;84.90
49238;DHT22;35069;47.906;1.892;2023-11-22T00:50:45;10.40;84.90
49238;DHT22;35069;47.906;1.892;2023-11-22T00:53:10;10.40;84.90
49238;DHT22;35069;47.906;1.892;2023-11-22T00:55:36;10.40;84.80
49238;DHT22;35069;47.906;1.892;2023-11-22T00:58:01;10.40;84.70
49238;DHT22;35069;47.906;1.892;2023-11-22T01:00:30;10.40;84.70
49238;DHT22;35069;47.906;1.892;2023-11-22T01:02:56;10.30;84.80
49238;DHT22;35069;47.906;1.892;2023-11-22T01:05:21;10.30;85.10
49238;DHT22;35069;47.906;1.892;2023-11-22T01:07:47;10.30;85.00
49238;DHT22;35069;47.906;1.892;2023-11-22T01:10:13;10.30;84.90
49238;DHT22;35069;47.906;1.892;2023-11-22T01:12:39;10.30;85.00
49238;DHT22;35069;47.906;1.892;2023-11-22T01:15:05;10.30;85.00
49238;DHT22;35069;47.906;1.892;2023-11-22T01:17:31;10.20;84.90
49238;DHT22;35069;47.906;1.892;2023-11-22T01:19:56;10.20;85.40
49238;DHT22;35069;47.906;1.892;2023-11-22T01:22:24;10.20;84.90
49238;DHT22;35069;47.906;1.892;2023-11-22T01:24:49;10.10;84.90
49238;DHT22;35069;47.906;1.892;2023-11-22T01:27:15;10.10;84.90
49238;DHT22;35069;47.906;1.892;2023-11-22T01:29:40;10.10;85.00
49238;DHT22;35069;47.906;1.892;2023-11-22T01:32:07;10.10;84.80
49238;DHT22;35069;47.906;1.892;2023-11-22T01:34:34;10.10;84.60
49238;DHT22;35069;47.906;1.892;2023-11-22T01:37:00;10.10;84.60
49238;DHT22;35069;47.906;1.892;2023-11-22T01:39:25;10.00;84.60
49238;DHT22;35069;47.906;1.892;2023-11-22T01:41:52;10.00;84.60
49238;DHT22;35069;47.906;1.892;2023-11-22T01:44:17;10.00;84.50
49238;DHT22;35069;47.906;1.892;2023-11-22T01:46:46;10.00;84.40
49238;DHT22;35069;47.906;1.892;2023-11-22T01:49:13;9.90;84.50
49238;DHT22;35069;47.906;1.892;2023-11-22T01:51:39;9.90;84.50
49238;DHT22;35069;47.906;1.892;2023-11-22T01:54:07;9.90;84.50
49238;DHT22;35069;47.906;1.892;2023-11-22T01:56:35;9.90;84.70
49238;DHT22;35069;47.906;1.892;2023-11-22T01:59:03;9.90;84.70
49238;DHT22;35069;47.906;1.892;2023-11-22T02:01:30;9.80;84.60
49238;DHT22;35069;47.906;1.892;2023-11-22T02:03:56;9.90;84.80
49238;DHT22;35069;47.906;1.892;2023-11-22T02:06:22;9.90;84.80
49238;DHT22;35069;47.906;1.892;2023-11-22T02:08:48;9.90;84.90
49238;DHT22;35069;47.906;1.892;2023-11-22T02:11:17;9.90;84.90
49238;DHT22;35069;47.906;1.892;2023-11-22T02:13:47;9.90;85.00
49238;DHT22;35069;47.906;1.892;2023-11-22T02:16:13;9.90;84.80
49238;DHT22;35069;47.906;1.892;2023-11-22T02:18:39;10.00;84.80
49238;DHT22;35069;47.906;1.892;2023-11-22T02:21:07;10.00;84.40
49238;DHT22;35069;47.906;1.892;2023-11-22T02:23:33;10.00;84.60
49238;DHT22;35069;47.906;1.892;2023-11-22T02:25:58;10.00;84.30
49238;DHT22;35069;47.906;1.892;2023-11-22T02:28:24;10.00;84.10
49238;DHT22;35069;47.906;1.892;2023-11-22T02:30:49;10.00;83.90
49238;DHT22;35069;47.906;1.892;2023-11-22T02:33:15;10.00;83.80
49238;DHT22;35069;47.906;1.892;2023-11-22T02:35:40;10.00;83.50
49238;DHT22;35069;47.906;1.892;2023-11-22T02:38:07;10.00;83.40
49238;DHT22;35069;47.906;1.892;2023-11-22T02:40:33;9.90;83.40
49238;DHT22;35069;47.906;1.892;2023-11-22T02:42:58;10.00;83.60
49238;DHT22;35069;47.906;1.892;2023-11-22T02:45:30;10.00;83.60
49238;DHT22;35069;47.906;1.892;2023-11-22T02:47:56;10.00;83.80
49238;DHT22;35069;47.906;1.892;2023-11-22T02:50:22;10.00;83.90
49238;DHT22;35069;47.906;1.892;2023-11-22T02:52:47;10.00;84.10
49238;DHT22;35069;47.906;1.892;2023-11-22T02:55:13;10.10;83.90
49238;DHT22;35069;47.906;1.892;2023-11-22T02:57:40;10.10;83.70
49238;DHT22;35069;47.906;1.892;2023-11-22T03:00:07;10.10;83.90
49238;DHT22;35069;47.906;1.892;2023-11-22T03:02:40;10.10;83.80
49238;DHT22;35069;47.906;1.892;2023-11-22T03:05:08;10.10;84.30
49238;DHT22;35069;47.906;1.892;2023-11-22T03:07:35;10.20;84.00
49238;DHT22;35069;47.906;1.892;2023-11-22T03:10:03;10.20;84.10
49238;DHT22;35069;47.906;1.892;2023-11-22T03:12:29;10.20;83.70
49238;DHT22;35069;47.906;1.892;2023-11-22T03:14:54;10.20;83.70
49238;DHT22;35069;47.906;1.892;2023-11-22T03:17:24;10.30;83.20
49238;DHT22;35069;47.906;1.892;2023-11-22T03:19:50;10.30;83.10
49238;DHT22;35069;47.906;1.892;2023-11-22T03:22:15;10.30;82.60
49238;DHT22;35069;47.906;1.892;2023-11-22T03:24:41;10.30;83.00
49238;DHT22;35069;47.906;1.892;2023-11-22T03:27:06;10.30;82.30
49238;DHT22;35069;47.906;1.892;2023-11-22T03:29:33;10.30;82.30
49238;DHT22;35069;47.906;1.892;2023-11-22T03:32:00;10.20;82.20
49238;DHT22;35069;47.906;1.892;2023-11-22T03:34:25;10.20;82.20
49238;DHT22;35069;47.906;1.892;2023-11-22T03:36:51;10.30;82.20
49238;DHT22;35069;47.906;1.892;2023-11-22T03:39:17;10.30;82.10
49238;DHT22;35069;47.906;1.892;2023-11-22T03:41:43;10.20;82.00
49238;DHT22;35069;47.906;1.892;2023-11-22T03:44:08;10.30;82.20
49238;DHT22;35069;47.906;1.892;2023-11-22T03:46:35;10.20;82.10
49238;DHT22;35069;47.906;1.892;2023-11-22T03:49:02;10.20;82.40
49238;DHT22;35069;47.906;1.892;2023-11-22T03:51:28;10.20;81.90
49238;DHT22;35069;47.906;1.892;2023-11-22T03:53:54;10.20;82.50
49238;DHT22;35069;47.906;1.892;2023-11-22T03:56:19;10.20;82.40
49238;DHT22;35069;47.906;1.892;2023-11-22T03:58:46;10.20;82.70
49238;DHT22;35069;47.906;1.892;2023-11-22T04:01:12;10.20;82.50
49238;DHT22;35069;47.906;1.892;2023-11-22T04:03:38;10.20;82.60
49238;DHT22;35069;47.906;1.892;2023-11-22T04:06:03;10.20;82.90
49238;DHT22;35069;47.906;1.892;2023-11-22T04:08:29;10.20;82.50
49238;DHT22;35069;47.906;1.892;2023-11-22T04:10:54;10.20;82.60
49238;DHT22;35069;47.906;1.892;2023-11-22T04:13:48;10.20;82.30
49238;DHT22;35069;47.906;1.892;2023-11-22T04:16:13;10.10;81.90
49238;DHT22;35069;47.906;1.892;2023-11-22T04:18:40;10.10;82.70
49238;DHT22;35069;47.906;1.892;2023-11-22T04:21:07;10.10;82.90
49238;DHT22;35069;47.906;1.892;2023-11-22T04:23:32;10.10;82.70
49238;DHT22;35069;47.906;1.892;2023-11-22T04:25:59;10.10;82.60
49238;DHT22;35069;47.906;1.892;2023-11-22T04:28:25;10.10;82.60
49238;DHT22;35069;47.906;1.892;2023-11-22T04:30:52;10.00;82.80
49238;DHT22;35069;47.906;1.892;2023-11-22T04:33:18;10.10;83.00
49238;DHT22;35069;47.906;1.892;2023-11-22T04:35:43;10.10;82.80
49238;DHT22;35069;47.906;1.892;2023-11-22T04:38:09;10.10;82.70
49238;DHT22;35069;47.906;1.892;2023-11-22T04:40:35;10.10;82.80
49238;DHT22;35069;47.906;1.892;2023-11-22T04:43:00;10.10;82.70
49238;DHT22;35069;47.906;1.892;2023-11-22T04:45:27;10.10;82.80
49238;DHT22;35069;47.906;1.892;2023-11-22T04:47:53;10.20;83.10
49238;DHT22;35069;47.906;1.892;2023-11-22T04:50:18;10.20;82.80
49238;DHT22;35069;47.906;1.892;2023-11-22T04:52:44;10.10;82.40
49238;DHT22;35069;47.906;1.892;2023-11-22T04:55:09;10.20;83.00
49238;DHT22;35069;47.906;1.892;2023-11-22T04:57:35;10.20;83.30
49238;DHT22;35069;47.906;1.892;2023-11-22T05:00:01;10.20;83.20
49238;DHT22;35069;47.906;1.892;2023-11-22T05:02:29;10.20;83.00
49238;DHT22;35069;47.906;1.892;2023-11-22T05:04:54;10.20;83.10
49238;DHT22;35069;47.906;1.892;2023-11-22T05:07:20;10.30;83.20
49238;DHT22;35069;47.906;1.892;2023-11-22T05:09:46;10.30;83.00
49238;DHT22;35069;47.906;1.892;2023-11-22T05:12:11;10.30;83.40
49238;DHT22;35069;47.906;1.892;2023-11-22T05:14:37;10.40;83.40
49238;DHT22;35069;47.906;1.892;2023-11-22T05:17:04;10.30;83.00
49238;DHT22;35069;47.906;1.892;2023-11-22T05:19:30;10.40;83.10
49238;DHT22;35069;47.906;1.892;2023-11-22T05:21:57;10.40;82.50
49238;DHT22;35069;47.906;1.892;2023-11-22T05:24:23;10.40;82.60
49238;DHT22;35069;47.906;1.892;2023-11-22T05:26:48;10.30;82.20
49238;DHT22;35069;47.906;1.892;2023-11-22T05:29:14;10.40;81.60
49238;DHT22;35069;47.906;1.892;2023-11-22T05:31:40;10.30;82.20
49238;DHT22;35069;47.906;1.892;2023-11-22T05:34:05;10.30;82.10
49238;DHT22;35069;47.906;1.892;2023-11-22T05:36:31;10.30;82.10
49238;DHT22;35069;47.906;1.892;2023-11-22T05:38:56;10.30;81.80
49238;DHT22;35069;47.906;1.892;2023-11-22T05:41:25;10.30;81.90
49238;DHT22;35069;47.906;1.892;2023-11-22T05:43:52;10.30;81.90
49238;DHT22;35069;47.906;1.892;2023-11-22T05:46:22;10.20;81.60
49238;DHT22;35069;47.906;1.892;2023-11-22T05:48:48;10.20;81.90
49238;DHT22;35069;47.906;1.892;2023-11-22T05:51:15;10.20;82.00
49238;DHT22;35069;47.906;1.892;2023-11-22T05:53:41;10.20;81.90
49238;DHT22;35069;47.906;1.892;2023-11-22T05:56:07;10.20;81.70
49238;DHT22;35069;47.906;1.892;2023-11-22T05:58:34;10.20;81.50
49238;DHT22;35069;47.906;1.892;2023-11-22T06:00:59;10.10;81.30
49238;DHT22;35069;47.906;1.892;2023-11-22T06:03:25;10.10;81.10
49238;DHT22;35069;47.906;1.892;2023-11-22T06:05:51;10.10;81.20
49238;DHT22;35069;47.906;1.892;2023-11-22T06:08:16;10.00;81.00
49238;DHT22;35069;47.906;1.892;2023-11-22T06:10:42;9.90;80.90
49238;DHT22;35069;47.906;1.892;2023-11-22T06:13:08;9.80;80.70
49238;DHT22;35069;47.906;1.892;2023-11-22T06:15:34;9.80;80.80
49238;DHT22;35069;47.906;1.892;2023-11-22T06:17:59;9.80;80.70
49238;DHT22;35069;47.906;1.892;2023-11-22T06:20:25;9.80;80.70
49238;DHT22;35069;47.906;1.892;2023-11-22T06:22:52;9.70;80.70
49238;DHT22;35069;47.906;1.892;2023-11-22T06:25:18;9.60;80.60
49238;DHT22;35069;47.906;1.892;2023-11-22T06:27:43;9.60;80.70
49238;DHT22;35069;47.906;1.892;2023-11-22T06:30:09;9.60;80.80
49238;DHT22;35069;47.906;1.892;2023-11-22T06:32:35;9.50;80.80
49238;DHT22;35069;47.906;1.892;2023-11-22T06:35:01;9.50;80.70
49238;DHT22;35069;47.906;1.892;2023-11-22T06:37:26;9.40;80.80
49238;DHT22;35069;47.906;1.892;2023-11-22T06:39:52;9.40;80.60
49238;DHT22;35069;47.906;1.892;2023-11-22T06:42:18;9.30;80.10
49238;DHT22;35069;47.906;1.892;2023-11-22T06:44:47;9.30;80.00
49238;DHT22;35069;47.906;1.892;2023-11-22T06:47:21;9.20;79.70
49238;DHT22;35069;47.906;1.892;2023-11-22T06:49:47;9.20;79.50
49238;DHT22;35069;47.906;1.892;2023-11-22T06:52:13;9.10;79.20
49238;DHT22;35069;47.906;1.892;2023-11-22T06:54:38;9.10;79.90
49238;DHT22;35069;47.906;1.892;2023-11-22T06:57:04;9.10;79.30
49238;DHT22;35069;47.906;1.892;2023-11-22T06:59:29;9.10;79.60
49238;DHT22;35069;47.906;1.892;2023-11-22T07:01:55;9.10;79.20
49238;DHT22;35069;47.906;1.892;2023-11-22T07:04:21;9.20;79.80
49238;DHT22;35069;47.906;1.892;2023-11-22T07:06:48;9.20;79.70
49238;DHT22;35069;47.906;1.892;2023-11-22T07:09:14;9.20;79.70
49238;DHT22;35069;47.906;1.892;2023-11-22T07:11:40;9.20;78.80
49238;DHT22;35069;47.906;1.892;2023-11-22T07:14:06;9.20;79.00
49238;DHT22;35069;47.906;1.892;2023-11-22T07:16:34;9.20;79.00
49238;DHT22;35069;47.906;1.892;2023-11-22T07:19:00;9.10;78.70
49238;DHT22;35069;47.906;1.892;2023-11-22T07:21:29;9.00;78.30
49238;DHT22;35069;47.906;1.892;2023-11-22T07:23:55;8.90;78.70
49238;DHT22;35069;47.906;1.892;2023-11-22T07:26:21;8.90;78.70
49238;DHT22;35069;47.906;1.892;2023-11-22T07:28:47;8.90;78.30
49238;DHT22;35069;47.906;1.892;2023-11-22T07:31:12;8.90;78.70
49238;DHT22;35069;47.906;1.892;2023-11-22T07:33:38;8.90;78.30
49238;DHT22;35069;47.906;1.892;2023-11-22T07:36:04;8.90;78.20
49238;DHT22;35069;47.906;1.892;2023-11-22T07:38:30;8.80;77.60
49238;DHT22;35069;47.906;1.892;2023-11-22T07:40:57;8.80;77.70
49238;DHT22;35069;47.906;1.892;2023-11-22T07:43:23;8.80;77.50
49238;DHT22;35069;47.906;1.892;2023-11-22T07:45:48;8.80;77.40
49238;DHT22;35069;47.906;1.892;2023-11-22T07:48:16;8.90;78.00
49238;DHT22;35069;47.906;1.892;2023-11-22T07:50:42;8.90;77.60
49238;DHT22;35069;47.906;1.892;2023-11-22T07:53:09;8.90;76.60
49238;DHT22;35069;47.906;1.892;2023-11-22T07:55:37;8.90;77.00
49238;DHT22;35069;47.906;1.892;2023-11-22T07:58:03;8.90;77.10
49238;DHT22;35069;47.906;1.892;2023-11-22T08:00:32;9.00;77.20
49238;DHT22;35069;47.906;1.892;2023-11-22T08:02:59;8.90;76.60
49238;DHT22;35069;47.906;1.892;2023-11-22T08:05:26;8.90;76.20
49238;DHT22;35069;47.906;1.892;2023-11-22T08:07:53;9.00;76.70
49238;DHT22;35069;47.906;1.892;2023-11-22T08:10:18;9.00;76.40
49238;DHT22;35069;47.906;1.892;2023-11-22T08:12:46;9.00;76.50
49238;DHT22;35069;47.906;1.892;2023-11-22T08:15:13;9.10;76.90
49238;DHT22;35069;47.906;1.892;2023-11-22T08:17:40;9.10;76.50
49238;DHT22;35069;47.906;1.892;2023-11-22T08:20:06;9.10;76.30
49238;DHT22;35069;47.906;1.892;2023-11-22T08:22:33;9.10;76.30
49238;DHT22;35069;47.906;1.892;2023-11-22T08:25:03;9.20;76.50
49238;DHT22;35069;47.906;1.892;2023-11-22T08:27:29;9.20;76.60
49238;DHT22;35069;47.906;1.892;2023-11-22T08:29:55;9.10;76.10
49238;DHT22;35069;47.906;1.892;2023-11-22T08:32:21;9.10;75.70
49238;DHT22;35069;47.906;1.892;2023-11-22T08:34:49;9.10;75.50
49238;DHT22;35069;47.906;1.892;2023-11-22T08:37:15;9.10;75.60
49238;DHT22;35069;47.906;1.892;2023-11-22T08:39:41;9.10;75.70
49238;DHT22;35069;47.906;1.892;2023-11-22T08:42:07;9.10;75.90
49238;DHT22;35069;47.906;1.892;2023-11-22T08:44:36;9.10;75.00
49238;DHT22;35069;47.906;1.892;2023-11-22T08:47:02;9.00;75.20
49238;DHT22;35069;47.906;1.892;2023-11-22T08:49:30;9.00;74.40
49238;DHT22;35069;47.906;1.892;2023-11-22T08:51:56;9.10;75.00
49238;DHT22;35069;47.906;1.892;2023-11-22T08:54:22;9.20;75.40
49238;DHT22;35069;47.906;1.892;2023-11-22T08:56:48;9.40;74.30
49238;DHT22;35069;47.906;1.892;2023-11-22T08:59:13;9.40;74.20
49238;DHT22;35069;47.906;1.892;2023-11-22T09:01:42;9.40;73.70
49238;DHT22;35069;47.906;1.892;2023-11-22T09:04:11;9.40;73.70
49238;DHT22;35069;47.906;1.892;2023-11-22T09:06:36;9.60;74.70
49238;DHT22;35069;47.906;1.892;2023-11-22T09:09:03;9.80;75.20
49238;DHT22;35069;47.906;1.892;2023-11-22T09:11:29;9.80;73.90
49238;DHT22;35069;47.906;1.892;2023-11-22T09:13:54;10.00;73.80
49238;DHT22;35069;47.906;1.892;2023-11-22T09:16:22;10.00;73.60
49238;DHT22;35069;47.906;1.892;2023-11-22T09:18:50;10.00;73.60
49238;DHT22;35069;47.906;1.892;2023-11-22T09:21:16;10.00;72.90
49238;DHT22;35069;47.906;1.892;2023-11-22T09:23:43;10.00;72.80
49238;DHT22;35069;47.906;1.892;2023-11-22T09:26:08;10.00;72.80
49238;DHT22;35069;47.906;1.892;2023-11-22T09:28:34;9.90;72.70
49238;DHT22;35069;47.906;1.892;2023-11-22T09:30:59;9.80;71.30
49238;DHT22;35069;47.906;1.892;2023-11-22T09:33:31;9.70;71.90
49238;DHT22;35069;47.906;1.892;2023-11-22T09:35:57;9.70;72.40
49238;DHT22;35069;47.906;1.892;2023-11-22T09:38:23;9.60;72.30
49238;DHT22;35069;47.906;1.892;2023-11-22T09:40:50;9.50;71.70
49238;DHT22;35069;47.906;1.892;2023-11-22T09:43:18;9.60;72.20
49238;DHT22;35069;47.906;1.892;2023-11-22T09:45:48;9.80;72.60
49238;DHT22;35069;47.906;1.892;2023-11-22T09:48:16;9.80;71.80
49238;DHT22;35069;47.906;1.892;2023-11-22T09:51:11;9.90;72.30
49238;DHT22;35069;47.906;1.892;2023-11-22T09:56:09;10.10;72.30
49238;DHT22;35069;47.906;1.892;2023-11-22T09:58:41;10.20;72.50
49238;DHT22;35069;47.906;1.892;2023-11-22T10:01:13;10.20;71.80
49238;DHT22;35069;47.906;1.892;2023-11-22T10:03:39;10.40;72.70
49238;DHT22;35069;47.906;1.892;2023-11-22T10:06:06;10.50;72.30
49238;DHT22;35069;47.906;1.892;2023-11-22T10:08:32;10.40;70.60
49238;DHT22;35069;47.906;1.892;2023-11-22T10:10:59;10.50;71.30
49238;DHT22;35069;47.906;1.892;2023-11-22T10:13:25;10.40;70.60
49238;DHT22;35069;47.906;1.892;2023-11-22T10:15:51;10.40;70.60
49238;DHT22;35069;47.906;1.892;2023-11-22T10:18:19;10.60;71.00
49238;DHT22;35069;47.906;1.892;2023-11-22T10:20:46;11.00;71.10
49238;DHT22;35069;47.906;1.892;2023-11-22T10:23:19;11.30;71.00
49238;DHT22;35069;47.906;1.892;2023-11-22T10:25:51;11.40;67.70
49238;DHT22;35069;47.906;1.892;2023-11-22T10:28:22;11.50;70.00
49238;DHT22;35069;47.906;1.892;2023-11-22T10:30:50;11.60;69.20
49238;DHT22;35069;47.906;1.892;2023-11-22T10:33:19;11.40;68.40
49238;DHT22;35069;47.906;1.892;2023-11-22T10:35:50;11.50;68.30
49238;DHT22;35069;47.906;1.892;2023-11-22T10:38:20;11.50;68.40
49238;DHT22;35069;47.906;1.892;2023-11-22T10:40:46;11.40;68.50
49238;DHT22;35069;47.906;1.892;2023-11-22T10:43:16;11.30;68.00
49238;DHT22;35069;47.906;1.892;2023-11-22T10:45:43;11.20;68.10
49238;DHT22;35069;47.906;1.892;2023-11-22T10:48:15;11.20;68.00
49238;DHT22;35069;47.906;1.892;2023-11-22T10:50:42;11.20;63.50
49238;DHT22;35069;47.906;1.892;2023-11-22T10:53:11;11.60;68.10
49238;DHT22;35069;47.906;1.892;2023-11-22T10:55:48;12.70;69.20
49238;DHT22;35069;47.906;1.892;2023-11-22T10:58:14;14.10;66.50
49238;DHT22;35069;47.906;1.892;2023-11-22T11:00:41;14.10;66.00
49238;DHT22;35069;47.906;1.892;2023-11-22T11:03:18;15.10;63.90
49238;DHT22;35069;47.906;1.892;2023-11-22T11:06:04;15.30;59.90
49238;DHT22;35069;47.906;1.892;2023-11-22T11:08:33;16.90;52.80
49238;DHT22;35069;47.906;1.892;2023-11-22T11:11:04;17.40;59.80
49238;DHT22;35069;47.906;1.892;2023-11-22T11:13:31;17.40;58.30
49238;DHT22;35069;47.906;1.892;2023-11-22T11:15:57;18.30;57.90
49238;DHT22;35069;47.906;1.892;2023-11-22T11:18:24;19.00;56.80
49238;DHT22;35069;47.906;1.892;2023-11-22T11:20:51;19.20;56.00
49238;DHT22;35069;47.906;1.892;2023-11-22T11:23:20;20.20;55.40
49238;DHT22;35069;47.906;1.892;2023-11-22T11:25:56;20.20;53.90
49238;DHT22;35069;47.906;1.892;2023-11-22T11:28:23;19.90;46.20
49238;DHT22;35069;47.906;1.892;2023-11-22T11:30:52;19.80;51.90
49238;DHT22;35069;47.906;1.892;2023-11-22T11:33:32;19.50;51.80
49238;DHT22;35069;47.906;1.892;2023-11-22T11:35:58;19.50;45.30
49238;DHT22;35069;47.906;1.892;2023-11-22T11:38:34;19.50;51.40
49238;DHT22;35069;47.906;1.892;2023-11-22T11:41:09;20.00;46.70
49238;DHT22;35069;47.906;1.892;2023-11-22T11:43:45;21.20;45.50
49238;DHT22;35069;47.906;1.892;2023-11-22T11:46:12;20.70;42.60
49238;DHT22;35069;47.906;1.892;2023-11-22T11:48:41;18.70;45.60
49238;DHT22;35069;47.906;1.892;2023-11-22T11:51:07;17.40;47.10
49238;DHT22;35069;47.906;1.892;2023-11-22T11:53:32;16.50;48.40
49238;DHT22;35069;47.906;1.892;2023-11-22T11:55:58;15.90;49.20
49238;DHT22;35069;47.906;1.892;2023-11-22T11:58:24;17.60;48.40
49238;DHT22;35069;47.906;1.892;2023-11-22T12:00:54;17.50;47.90
49238;DHT22;35069;47.906;1.892;2023-11-22T12:03:20;17.30;46.60
49238;DHT22;35069;47.906;1.892;2023-11-22T12:05:47;17.10;47.70
49238;DHT22;35069;47.906;1.892;2023-11-22T12:08:14;17.50;47.80
49238;DHT22;35069;47.906;1.892;2023-11-22T12:10:41;17.00;47.30
49238;DHT22;35069;47.906;1.892;2023-11-22T12:13:07;16.90;47.30
49238;DHT22;35069;47.906;1.892;2023-11-22T12:15:34;19.50;46.70
49238;DHT22;35069;47.906;1.892;2023-11-22T12:18:00;22.10;44.20
49238;DHT22;35069;47.906;1.892;2023-11-22T12:20:26;23.30;41.60
49238;DHT22;35069;47.906;1.892;2023-11-22T12:22:59;23.30;41.30
49238;DHT22;35069;47.906;1.892;2023-11-22T12:25:29;21.20;43.30
49238;DHT22;35069;47.906;1.892;2023-11-22T12:27:55;19.60;46.20
49238;DHT22;35069;47.906;1.892;2023-11-22T12:30:34;17.60;48.10
49238;DHT22;35069;47.906;1.892;2023-11-22T12:33:02;16.70;45.70
49238;DHT22;35069;47.906;1.892;2023-11-22T12:35:28;16.40;47.60
49238;DHT22;35069;47.906;1.892;2023-11-22T12:37:54;16.50;45.60
49238;DHT22;35069;47.906;1.892;2023-11-22T12:40:20;16.00;45.70
49238;DHT22;35069;47.906;1.892;2023-11-22T12:42:52;15.10;46.70
49238;DHT22;35069;47.906;1.892;2023-11-22T12:47:45;13.70;49.00
49238;DHT22;35069;47.906;1.892;2023-11-22T12:50:29;13.20;49.80
49238;DHT22;35069;47.906;1.892;2023-11-22T12:52:59;13.00;50.80
49238;DHT22;35069;47.906;1.892;2023-11-22T12:55:32;12.60;51.10
49238;DHT22;35069;47.906;1.892;2023-11-22T12:57:58;12.60;51.40
49238;DHT22;35069;47.906;1.892;2023-11-22T13:00:29;12.30;52.10
49238;DHT22;35069;47.906;1.892;2023-11-22T13:02:58;12.20;52.70
49238;DHT22;35069;47.906;1.892;2023-11-22T13:05:24;12.10;52.80
49238;DHT22;35069;47.906;1.892;2023-11-22T13:07:49;12.00;52.50
49238;DHT22;35069;47.906;1.892;2023-11-22T13:10:15;12.00;52.30
49238;DHT22;35069;47.906;1.892;2023-11-22T13:12:42;11.80;52.40
49238;DHT22;35069;47.906;1.892;2023-11-22T13:15:09;11.70;52.50
49238;DHT22;35069;47.906;1.892;2023-11-22T13:17:37;11.60;52.40
49238;DHT22;35069;47.906;1.892;2023-11-22T13:20:06;11.60;52.90
49238;DHT22;35069;47.906;1.892;2023-11-22T13:22:39;11.60;53.30
49238;DHT22;35069;47.906;1.892;2023-11-22T13:25:05;11.60;53.30
49238;DHT22;35069;47.906;1.892;2023-11-22T13:27:31;11.50;53.40
49238;DHT22;35069;47.906;1.892;2023-11-22T13:29:57;11.60;53.60
49238;DHT22;35069;47.906;1.892;2023-11-22T13:32:24;11.50;53.70
49238;DHT22;35069;47.906;1.892;2023-11-22T13:34:50;11.60;53.90
49238;DHT22;35069;47.906;1.892;2023-11-22T13:37:23;11.60;54.00
49238;DHT22;35069;47.906;1.892;2023-11-22T13:39:49;11.60;54.00
49238;DHT22;35069;47.906;1.892;2023-11-22T13:42:14;11.70;54.00
49238;DHT22;35069;47.906;1.892;2023-11-22T13:44:40;11.60;53.90
49238;DHT22;35069;47.906;1.892;2023-11-22T13:47:07;11.60;53.80
49238;DHT22;35069;47.906;1.892;2023-11-22T13:49:33;11.50;54.00
49238;DHT22;35069;47.906;1.892;2023-11-22T13:51:59;11.40;54.50
49238;DHT22;35069;47.906;1.892;2023-11-22T13:54:24;11.30;54.70
49238;DHT22;35069;47.906;1.892;2023-11-22T13:56:50;11.20;55.10
49238;DHT22;35069;47.906;1.892;2023-11-22T13:59:15;11.20;55.30
49238;DHT22;35069;47.906;1.892;2023-11-22T14:01:41;11.10;55.50
49238;DHT22;35069;47.906;1.892;2023-11-22T14:04:07;11.10;55.70
49238;DHT22;35069;47.906;1.892;2023-11-22T14:06:33;11.10;55.40
49238;DHT22;35069;47.906;1.892;2023-11-22T14:08:58;11.10;55.50
49238;DHT22;35069;47.906;1.892;2023-11-22T14:11:24;11.10;55.60
49238;DHT22;35069;47.906;1.892;2023-11-22T14:13:49;11.10;55.70
49238;DHT22;35069;47.906;1.892;2023-11-22T14:16:15;11.10;55.80
49238;DHT22;35069;47.906;1.892;2023-11-22T14:18:40;11.20;55.90
49238;DHT22;35069;47.906;1.892;2023-11-22T14:21:06;11.20;55.90
49238;DHT22;35069;47.906;1.892;2023-11-22T14:23:32;11.00;56.00
49238;DHT22;35069;47.906;1.892;2023-11-22T14:25:58;11.10;56.20
49238;DHT22;35069;47.906;1.892;2023-11-22T14:28:24;11.00;56.20
49238;DHT22;35069;47.906;1.892;2023-11-22T14:30:49;11.00;56.30
49238;DHT22;35069;47.906;1.892;2023-11-22T14:33:20;10.90;56.50
49238;DHT22;35069;47.906;1.892;2023-11-22T14:35:45;10.90;56.70
49238;DHT22;35069;47.906;1.892;2023-11-22T14:38:11;11.00;56.70
49238;DHT22;35069;47.906;1.892;2023-11-22T14:40:38;11.00;57.00
49238;DHT22;35069;47.906;1.892;2023-11-22T14:43:05;10.90;57.10
49238;DHT22;35069;47.906;1.892;2023-11-22T14:45:31;10.90;57.40
49238;DHT22;35069;47.906;1.892;2023-11-22T14:47:58;10.90;57.50
49238;DHT22;35069;47.906;1.892;2023-11-22T14:50:23;10.90;57.40
49238;DHT22;35069;47.906;1.892;2023-11-22T14:52:52;10.90;57.20
49238;DHT22;35069;47.906;1.892;2023-11-22T14:55:18;11.00;57.40
49238;DHT22;35069;47.906;1.892;2023-11-22T14:57:50;11.00;57.20
49238;DHT22;35069;47.906;1.892;2023-11-22T15:00:16;11.00;57.00
49238;DHT22;35069;47.906;1.892;2023-11-22T15:02:43;11.10;57.10
49238;DHT22;35069;47.906;1.892;2023-11-22T15:05:09;11.10;57.00
49238;DHT22;35069;47.906;1.892;2023-11-22T15:07:37;11.10;56.80
49238;DHT22;35069;47.906;1.892;2023-11-22T15:10:07;11.00;56.80
49238;DHT22;35069;47.906;1.892;2023-11-22T15:12:33;11.10;56.80
49238;DHT22;35069;47.906;1.892;2023-11-22T15:15:00;11.10;56.70
49238;DHT22;35069;47.906;1.892;2023-11-22T15:17:25;11.10;56.60
49238;DHT22;35069;47.906;1.892;2023-11-22T15:19:51;11.10;56.40
49238;DHT22;35069;47.906;1.892;2023-11-22T15:22:16;11.10;56.40
49238;DHT22;35069;47.906;1.892;2023-11-22T15:24:42;11.00;56.20
49238;DHT22;35069;47.906;1.892;2023-11-22T15:27:07;11.00;56.20
49238;DHT22;35069;47.906;1.892;2023-11-22T15:29:33;11.00;56.30
49238;DHT22;35069;47.906;1.892;2023-11-22T15:31:59;10.90;56.30
49238;DHT22;35069;47.906;1.892;2023-11-22T15:34:25;10.90;56.50
49238;DHT22;35069;47.906;1.892;2023-11-22T15:36:50;10.90;56.50
49238;DHT22;35069;47.906;1.892;2023-11-22T15:39:16;10.90;56.50